Time;durP1;ratioP1;P1;durP2;ratioP2;P2;SDS_P1;SDS_P2;PMS_P1;PMS_P2;Temp;Humidity;BMP_temperature;BMP_pressure;BME280_temperature;BME280_humidity;BME280_pressure;Samples;Min_cycle;Max_cycle;Signal;HPM_P1;HPM_P2
2021/08/28 00:00:54;;;;;;;1.38;1.25;;;17.60;99.90;;;;;;5051036;28;20196;-78
2021/08/28 00:03:21;;;;;;;1.58;1.20;;;17.60;99.90;;;;;;5048849;28;20615;-77
2021/08/28 00:05:49;;;;;;;1.70;1.15;;;17.60;99.90;;;;;;5052159;28;20257;-77
2021/08/28 00:08:17;;;;;;;2.00;1.30;;;17.60;99.90;;;;;;5049781;28;20203;-77
2021/08/28 00:10:43;;;;;;;1.85;1.23;;;17.60;99.90;;;;;;5045201;28;20266;-77
2021/08/28 00:13:11;;;;;;;1.10;0.98;;;17.60;99.90;;;;;;5049762;28;20246;-77
2021/08/28 00:15:38;;;;;;;1.40;1.20;;;17.60;99.90;;;;;;5051156;28;20300;-78
2021/08/28 00:18:07;;;;;;;1.50;1.00;;;17.60;99.90;;;;;;5044418;28;20606;-78
2021/08/28 00:20:34;;;;;;;1.60;1.13;;;17.60;99.90;;;;;;5045290;28;20230;-78
2021/08/28 00:23:02;;;;;;;1.63;1.35;;;17.60;99.90;;;;;;5049844;28;20234;-78
2021/08/28 00:25:29;;;;;;;3.55;1.50;;;17.60;99.90;;;;;;5045586;28;20615;-78
2021/08/28 00:27:55;;;;;;;1.85;1.10;;;17.60;99.90;;;;;;5051609;28;20249;-78
2021/08/28 00:30:22;;;;;;;2.50;1.10;;;17.50;99.90;;;;;;5050064;28;20280;-78
2021/08/28 00:32:49;;;;;;;1.65;1.23;;;17.50;99.90;;;;;;5046471;28;20204;-78
2021/08/28 00:35:17;;;;;;;1.38;1.00;;;17.50;99.90;;;;;;5049598;28;20191;-77
2021/08/28 00:37:44;;;;;;;1.50;1.40;;;17.50;99.90;;;;;;5051836;28;20619;-78
2021/08/28 00:40:11;;;;;;;1.50;1.02;;;17.50;99.90;;;;;;5041530;28;20265;-77
2021/08/28 00:42:50;;;;;;;1.30;1.20;;;17.50;99.90;;;;;;5048895;28;20817;-77
2021/08/28 00:45:16;;;;;;;2.00;1.10;;;17.50;99.90;;;;;;5048167;28;20191;-77
2021/08/28 00:47:50;;;;;;;1.30;0.90;;;17.50;99.90;;;;;;5047796;28;20241;-77
2021/08/28 00:50:19;;;;;;;1.52;1.13;;;17.50;99.90;;;;;;5049002;28;20269;-78
2021/08/28 00:52:46;;;;;;;1.50;0.98;;;17.60;99.90;;;;;;5047880;28;20220;-77
2021/08/28 00:55:13;;;;;;;2.35;1.40;;;17.50;99.90;;;;;;5049304;28;20245;-77
2021/08/28 00:57:39;;;;;;;1.38;0.90;;;17.50;99.90;;;;;;5048977;28;20241;-77
2021/08/28 01:00:08;;;;;;;1.60;1.00;;;17.50;99.90;;;;;;5046812;28;20272;-78
2021/08/28 01:02:36;;;;;;;3.15;1.10;;;17.50;99.90;;;;;;5047210;28;20615;-78
2021/08/28 01:05:10;;;;;;;1.80;1.30;;;17.50;99.90;;;;;;5045921;28;20195;-78
2021/08/28 01:07:48;;;;;;;1.52;1.38;;;17.50;99.90;;;;;;5047222;28;20191;-77
2021/08/28 01:10:16;;;;;;;3.60;1.00;;;17.50;99.90;;;;;;5046595;28;20223;-77
2021/08/28 01:12:47;;;;;;;1.35;1.10;;;17.50;99.90;;;;;;5044822;28;20253;-77
2021/08/28 01:15:17;;;;;;;1.55;1.33;;;17.50;99.90;;;;;;5051410;28;20192;-78
2021/08/28 01:17:47;;;;;;;1.55;1.27;;;17.50;99.90;;;;;;5049252;28;20599;-78
2021/08/28 01:20:24;;;;;;;1.65;1.40;;;17.50;99.90;;;;;;5049501;28;20215;-78
2021/08/28 01:22:52;;;;;;;2.15;1.20;;;17.50;99.90;;;;;;5045433;28;20253;-79
2021/08/28 01:25:21;;;;;;;2.60;1.10;;;17.40;99.90;;;;;;5042714;28;20191;-78
2021/08/28 01:27:53;;;;;;;1.40;1.30;;;17.40;99.90;;;;;;5048651;28;20249;-78
2021/08/28 01:30:22;;;;;;;1.70;1.13;;;17.40;99.90;;;;;;5045115;28;20631;-77
2021/08/28 01:32:50;;;;;;;4.53;1.55;;;17.40;99.90;;;;;;5046651;28;20200;-77
2021/08/28 01:35:17;;;;;;;2.65;0.90;;;17.40;99.90;;;;;;5044452;28;20668;-77
2021/08/28 01:37:45;;;;;;;1.40;1.20;;;17.40;99.90;;;;;;5046554;28;20187;-77
2021/08/28 01:40:13;;;;;;;2.83;1.33;;;17.40;99.90;;;;;;5042977;28;20843;-77
2021/08/28 01:42:41;;;;;;;2.53;1.40;;;17.40;99.90;;;;;;5046217;28;20204;-76
2021/08/28 01:45:12;;;;;;;2.67;1.33;;;17.40;99.90;;;;;;5046075;28;20196;-77
2021/08/28 01:47:41;;;;;;;2.38;1.48;;;17.40;99.90;;;;;;5043406;28;20191;-76
2021/08/28 01:50:10;;;;;;;3.15;1.60;;;17.40;99.90;;;;;;5043114;28;20216;-77
2021/08/28 01:52:37;;;;;;;1.80;1.30;;;17.40;99.90;;;;;;5047799;28;20200;-77
2021/08/28 01:55:05;;;;;;;3.28;1.60;;;17.40;99.90;;;;;;5051713;28;20199;-76
2021/08/28 01:57:32;;;;;;;1.55;1.20;;;17.40;99.90;;;;;;5045915;28;20644;-76
2021/08/28 02:00:02;;;;;;;1.50;1.40;;;17.40;99.90;;;;;;5046020;28;20207;-77
2021/08/28 02:02:28;;;;;;;3.45;1.70;;;17.40;99.90;;;;;;5043681;28;20206;-77
2021/08/28 02:04:57;;;;;;;2.90;1.42;;;17.30;99.90;;;;;;5045186;28;20214;-77
2021/08/28 02:07:32;;;;;;;1.50;1.40;;;17.40;99.90;;;;;;5050259;28;20333;-77
2021/08/28 02:10:04;;;;;;;2.08;1.40;;;17.40;99.90;;;;;;5046314;28;20260;-77
2021/08/28 02:12:36;;;;;;;1.58;1.35;;;17.30;99.90;;;;;;5050714;28;20199;-77
2021/08/28 02:15:07;;;;;;;2.38;1.83;;;17.30;99.90;;;;;;5052449;28;20191;-77
2021/08/28 02:17:36;;;;;;;1.98;1.63;;;17.30;99.90;;;;;;5051708;28;20292;-77
2021/08/28 02:20:08;;;;;;;4.95;1.42;;;17.30;99.90;;;;;;5050145;28;20306;-78
2021/08/28 02:22:40;;;;;;;2.20;1.40;;;17.30;99.90;;;;;;5043399;28;20564;-77
2021/08/28 02:25:13;;;;;;;1.30;1.02;;;17.30;99.90;;;;;;5043934;28;20254;-77
2021/08/28 02:27:46;;;;;;;3.05;1.40;;;17.40;99.90;;;;;;5053263;28;20667;-77
2021/08/28 02:30:18;;;;;;;2.00;1.55;;;17.30;99.90;;;;;;5050797;28;20277;-77
2021/08/28 02:32:47;;;;;;;5.13;1.70;;;17.30;99.90;;;;;;5047445;28;20192;-78
2021/08/28 02:35:16;;;;;;;3.67;1.80;;;17.30;99.90;;;;;;5049075;28;20192;-78
2021/08/28 02:37:44;;;;;;;1.70;1.60;;;17.30;99.90;;;;;;5049827;28;20195;-77
2021/08/28 02:40:15;;;;;;;2.28;1.80;;;17.30;99.90;;;;;;5047369;28;20208;-78
2021/08/28 02:42:44;;;;;;;1.65;1.55;;;17.30;99.90;;;;;;5050072;28;20198;-77
2021/08/28 02:45:16;;;;;;;2.38;1.70;;;17.30;99.90;;;;;;5050000;28;20218;-78
2021/08/28 02:47:44;;;;;;;1.45;1.35;;;17.30;99.90;;;;;;5045376;28;20267;-78
2021/08/28 02:50:15;;;;;;;1.60;1.45;;;17.30;99.90;;;;;;5046370;28;20848;-77
2021/08/28 02:52:44;;;;;;;2.20;1.85;;;17.30;99.90;;;;;;5048974;28;20253;-76
2021/08/28 02:55:13;;;;;;;1.85;1.50;;;17.30;99.90;;;;;;5048159;28;20848;-76
2021/08/28 02:57:42;;;;;;;1.67;1.35;;;17.30;99.90;;;;;;5052632;28;20218;-78
2021/08/28 03:00:11;;;;;;;1.48;1.20;;;17.30;99.90;;;;;;5053003;28;20591;-77
2021/08/28 03:02:39;;;;;;;3.65;1.75;;;17.30;99.90;;;;;;5044192;28;20192;-76
2021/08/28 03:05:07;;;;;;;2.40;1.38;;;17.30;99.90;;;;;;5044713;28;20222;-76
2021/08/28 03:07:36;;;;;;;1.67;1.42;;;17.30;99.90;;;;;;5050219;28;20573;-76
2021/08/28 03:10:05;;;;;;;2.13;1.35;;;17.30;99.90;;;;;;5048089;28;20261;-76
2021/08/28 03:12:32;;;;;;;2.20;1.70;;;17.20;99.90;;;;;;5045734;28;20230;-77
2021/08/28 03:14:58;;;;;;;2.47;1.40;;;17.20;99.90;;;;;;5048161;28;20200;-77
2021/08/28 03:17:26;;;;;;;3.05;1.95;;;17.20;99.90;;;;;;5051543;28;20199;-77
2021/08/28 03:19:54;;;;;;;2.17;1.70;;;17.20;99.90;;;;;;5050050;28;20273;-77
2021/08/28 03:22:22;;;;;;;7.28;2.08;;;17.20;99.90;;;;;;5050766;28;20238;-77
2021/08/28 03:24:52;;;;;;;1.70;1.60;;;17.20;99.90;;;;;;5045021;28;20203;-77
2021/08/28 03:27:20;;;;;;;3.38;1.75;;;17.30;99.90;;;;;;5048289;28;20588;-77
2021/08/28 03:29:48;;;;;;;2.33;2.13;;;17.30;99.90;;;;;;5050036;28;20226;-78
2021/08/28 03:32:16;;;;;;;5.13;2.90;;;17.20;99.90;;;;;;5044520;28;20675;-78
2021/08/28 03:34:43;;;;;;;2.58;1.90;;;17.30;99.90;;;;;;5047562;28;20195;-78
2021/08/28 03:37:12;;;;;;;1.52;1.33;;;17.20;99.90;;;;;;5048020;28;20191;-78
2021/08/28 03:39:40;;;;;;;2.63;1.38;;;17.20;99.90;;;;;;5046541;28;20249;-77
2021/08/28 03:42:08;;;;;;;2.97;2.15;;;17.20;99.90;;;;;;5047020;28;20265;-77
2021/08/28 03:44:38;;;;;;;1.92;1.73;;;17.20;99.90;;;;;;5046803;28;20199;-77
2021/08/28 03:47:05;;;;;;;1.98;1.60;;;17.20;99.90;;;;;;5047478;28;20204;-77
2021/08/28 03:49:32;;;;;;;2.83;1.60;;;17.20;99.90;;;;;;5043694;28;20664;-77
2021/08/28 03:51:59;;;;;;;3.00;1.70;;;17.20;99.90;;;;;;5046260;28;20253;-77
2021/08/28 03:54:25;;;;;;;3.30;2.03;;;17.30;99.90;;;;;;5049323;28;20254;-77
2021/08/28 03:56:52;;;;;;;2.40;1.85;;;17.20;99.90;;;;;;5051311;28;20199;-77
2021/08/28 03:59:20;;;;;;;3.63;1.80;;;17.20;99.90;;;;;;5051429;28;20587;-76
2021/08/28 04:01:47;;;;;;;2.90;2.60;;;17.20;99.90;;;;;;5047403;28;20199;-77
2021/08/28 04:04:14;;;;;;;1.95;1.80;;;17.20;99.90;;;;;;5050796;28;20253;-77
2021/08/28 04:06:41;;;;;;;2.80;2.30;;;17.20;99.90;;;;;;5043379;28;20196;-78
2021/08/28 04:09:07;;;;;;;2.45;2.25;;;17.20;99.90;;;;;;5045985;28;20564;-77
2021/08/28 04:11:34;;;;;;;3.30;1.80;;;17.20;99.90;;;;;;5049565;28;20281;-77
2021/08/28 04:14:01;;;;;;;3.60;2.25;;;17.20;99.90;;;;;;5044690;28;20283;-77
2021/08/28 04:16:29;;;;;;;2.45;2.00;;;17.20;99.90;;;;;;5049855;28;20203;-77
2021/08/28 04:18:56;;;;;;;1.95;1.85;;;17.20;99.90;;;;;;5045648;28;20199;-78
2021/08/28 04:21:23;;;;;;;3.10;2.08;;;17.20;99.90;;;;;;5049272;28;20195;-78
2021/08/28 04:23:49;;;;;;;2.60;2.40;;;17.20;99.90;;;;;;5044221;28;20192;-78
2021/08/28 04:26:16;;;;;;;4.13;2.35;;;17.20;99.90;;;;;;5040935;28;20652;-78
2021/08/28 04:28:43;;;;;;;3.35;2.20;;;17.20;99.90;;;;;;5051870;28;20285;-78
2021/08/28 04:31:10;;;;;;;3.17;1.83;;;17.20;99.90;;;;;;5046769;28;20216;-77
2021/08/28 04:33:38;;;;;;;2.40;2.20;;;17.20;99.90;;;;;;5045805;28;20200;-78
2021/08/28 04:36:05;;;;;;;3.88;1.92;;;17.20;99.90;;;;;;5045140;28;20249;-78
2021/08/28 04:38:32;;;;;;;2.92;2.63;;;17.20;99.90;;;;;;5044111;28;20653;-78
2021/08/28 04:40:58;;;;;;;3.83;3.10;;;17.20;99.90;;;;;;5041432;28;20195;-78
2021/08/28 04:43:25;;;;;;;2.85;2.28;;;17.20;99.90;;;;;;5044974;28;20610;-77
2021/08/28 04:45:52;;;;;;;3.05;2.20;;;17.20;99.90;;;;;;5044446;28;20211;-77
2021/08/28 04:48:18;;;;;;;2.22;1.50;;;17.20;99.90;;;;;;5046908;28;20626;-78
2021/08/28 04:50:46;;;;;;;3.55;2.42;;;17.20;99.90;;;;;;5048528;28;20216;-79
2021/08/28 04:53:13;;;;;;;2.50;2.30;;;17.20;99.90;;;;;;5044735;28;20249;-78
2021/08/28 04:55:40;;;;;;;3.05;2.63;;;17.20;99.90;;;;;;5053355;28;20287;-78
2021/08/28 04:58:06;;;;;;;3.95;3.38;;;17.20;99.90;;;;;;5058203;28;20200;-78
2021/08/28 05:00:33;;;;;;;2.30;2.10;;;17.10;99.90;;;;;;5051929;28;20640;-78
2021/08/28 05:03:00;;;;;;;3.22;2.00;;;17.10;99.90;;;;;;5043093;28;20198;-78
2021/08/28 05:05:26;;;;;;;2.80;2.53;;;17.10;99.90;;;;;;5045646;28;20578;-78
2021/08/28 05:07:54;;;;;;;3.33;2.60;;;17.20;99.90;;;;;;5045603;28;20273;-77
2021/08/28 05:10:22;;;;;;;2.97;2.55;;;17.20;99.90;;;;;;5043551;28;20207;-76
2021/08/28 05:12:49;;;;;;;2.40;2.20;;;17.20;99.90;;;;;;5045454;28;20603;-76
2021/08/28 05:15:16;;;;;;;2.05;1.88;;;17.20;99.90;;;;;;5046805;28;20195;-76
2021/08/28 05:17:42;;;;;;;3.05;2.75;;;17.10;99.90;;;;;;5045198;28;20745;-77
2021/08/28 05:20:10;;;;;;;2.35;2.00;;;17.10;99.90;;;;;;5046030;28;20619;-77
2021/08/28 05:22:36;;;;;;;2.80;2.25;;;17.10;99.90;;;;;;5045113;28;20210;-77
2021/08/28 05:25:05;;;;;;;2.17;1.95;;;17.10;99.90;;;;;;5040146;28;20199;-77
2021/08/28 05:27:32;;;;;;;2.17;1.95;;;17.10;99.90;;;;;;5046054;28;20207;-77
2021/08/28 05:29:59;;;;;;;3.83;2.30;;;17.10;99.90;;;;;;5048861;28;20195;-78
2021/08/28 05:32:25;;;;;;;4.70;2.00;;;17.10;99.90;;;;;;5042915;28;20203;-77
2021/08/28 05:34:54;;;;;;;3.88;2.47;;;17.10;99.90;;;;;;5046574;28;20188;-78
2021/08/28 05:37:21;;;;;;;2.35;1.85;;;17.10;99.90;;;;;;5045489;28;20202;-77
2021/08/28 05:39:48;;;;;;;2.20;1.75;;;17.10;99.90;;;;;;5044526;28;20241;-77
2021/08/28 05:42:16;;;;;;;1.80;1.70;;;17.10;99.90;;;;;;5049932;28;20203;-77
2021/08/28 05:44:42;;;;;;;1.98;1.42;;;17.10;99.90;;;;;;5049126;28;20268;-77
2021/08/28 05:47:09;;;;;;;2.92;2.47;;;17.10;99.90;;;;;;5050353;28;20257;-77
2021/08/28 05:49:36;;;;;;;2.20;2.00;;;17.10;99.90;;;;;;5047849;28;20199;-77
2021/08/28 05:52:03;;;;;;;1.55;1.45;;;17.10;99.90;;;;;;5048677;28;20223;-78
2021/08/28 05:54:29;;;;;;;3.25;2.45;;;17.10;99.90;;;;;;5048343;28;20206;-77
2021/08/28 05:56:56;;;;;;;2.67;2.20;;;17.10;99.90;;;;;;5054441;28;20232;-78
2021/08/28 05:59:24;;;;;;;2.05;1.70;;;17.10;99.90;;;;;;5052578;28;20196;-77
2021/08/28 06:01:52;;;;;;;2.50;1.90;;;17.10;99.90;;;;;;5048578;28;20223;-77
2021/08/28 06:04:19;;;;;;;2.40;1.67;;;17.10;99.90;;;;;;5047151;28;20245;-77
2021/08/28 06:06:45;;;;;;;1.90;1.70;;;17.10;99.90;;;;;;5049672;28;20620;-76
2021/08/28 06:09:12;;;;;;;2.38;2.17;;;17.10;99.90;;;;;;5048225;28;20206;-76
2021/08/28 06:11:39;;;;;;;2.60;1.90;;;17.10;99.90;;;;;;5049608;28;20250;-77
2021/08/28 06:14:05;;;;;;;2.35;2.03;;;17.10;99.90;;;;;;5048359;28;20196;-76
2021/08/28 06:16:33;;;;;;;1.73;1.45;;;17.10;99.90;;;;;;5047181;28;20645;-76
2021/08/28 06:19:00;;;;;;;2.65;2.45;;;17.10;99.90;;;;;;5050085;28;20254;-75
2021/08/28 06:21:27;;;;;;;2.47;2.28;;;17.20;99.90;;;;;;5049844;28;20207;-76
2021/08/28 06:23:54;;;;;;;2.72;2.22;;;17.20;99.90;;;;;;5044706;28;20195;-77
2021/08/28 06:26:21;;;;;;;2.65;2.42;;;17.20;99.90;;;;;;5047672;28;20203;-77
2021/08/28 06:28:47;;;;;;;4.80;2.70;;;17.20;99.90;;;;;;5054821;28;20602;-76
2021/08/28 06:31:14;;;;;;;2.72;2.35;;;17.20;99.90;;;;;;5050361;28;20392;-76
2021/08/28 06:33:42;;;;;;;2.72;2.53;;;17.20;99.90;;;;;;5047936;28;20195;-76
2021/08/28 06:36:09;;;;;;;3.55;2.55;;;17.20;99.90;;;;;;5048912;28;20245;-76
2021/08/28 06:38:35;;;;;;;3.17;2.38;;;17.20;99.90;;;;;;5043759;28;20192;-76
2021/08/28 06:41:03;;;;;;;2.65;2.22;;;17.20;99.90;;;;;;5052199;28;20200;-77
2021/08/28 06:43:29;;;;;;;2.42;1.77;;;17.20;99.90;;;;;;5053402;28;20199;-77
2021/08/28 06:45:56;;;;;;;5.15;1.98;;;17.30;99.90;;;;;;5051625;28;20195;-77
2021/08/28 06:48:23;;;;;;;2.58;2.10;;;17.30;99.90;;;;;;5049229;28;20603;-76
2021/08/28 06:50:51;;;;;;;2.55;2.20;;;17.30;99.90;;;;;;5050687;28;20620;-76
2021/08/28 06:53:18;;;;;;;4.70;2.03;;;17.30;99.90;;;;;;5046063;28;20253;-76
2021/08/28 06:55:45;;;;;;;5.07;2.20;;;17.20;99.90;;;;;;5048894;28;20195;-76
2021/08/28 06:58:12;;;;;;;2.85;2.55;;;17.20;99.90;;;;;;5052757;28;20253;-76
2021/08/28 07:00:38;;;;;;;3.15;2.33;;;17.30;99.90;;;;;;5052023;28;20200;-76
2021/08/28 07:03:05;;;;;;;3.92;3.00;;;17.30;99.90;;;;;;5050973;28;20196;-76
2021/08/28 07:05:32;;;;;;;3.35;3.05;;;17.30;99.90;;;;;;5051020;28;20554;-77
2021/08/28 07:08:00;;;;;;;4.03;2.40;;;17.30;99.90;;;;;;5050744;28;20208;-76
2021/08/28 07:10:27;;;;;;;2.55;2.33;;;17.20;99.90;;;;;;5052597;28;20199;-77
2021/08/28 07:12:53;;;;;;;2.53;2.00;;;17.20;99.90;;;;;;5052233;28;20729;-76
2021/08/28 07:15:20;;;;;;;2.67;2.40;;;17.30;99.90;;;;;;5046664;28;20200;-76
2021/08/28 07:17:47;;;;;;;2.53;2.33;;;17.20;99.90;;;;;;5051513;28;20203;-81
2021/08/28 07:20:14;;;;;;;3.28;2.60;;;17.30;99.90;;;;;;5055987;28;20211;-81
2021/08/28 07:22:41;;;;;;;1.75;1.65;;;17.30;99.90;;;;;;5052268;28;20211;-81
2021/08/28 07:25:10;;;;;;;2.00;1.70;;;17.30;99.90;;;;;;5056732;28;20733;-81
2021/08/28 07:27:37;;;;;;;3.30;2.35;;;17.40;99.90;;;;;;5059513;28;20243;-80
2021/08/28 07:30:05;;;;;;;2.60;2.40;;;17.50;99.90;;;;;;5054745;28;20211;-80
2021/08/28 07:32:31;;;;;;;4.95;2.00;;;17.50;99.90;;;;;;5050000;28;20261;-80
2021/08/28 07:34:58;;;;;;;2.20;1.90;;;17.60;99.90;;;;;;5052956;28;20196;-81
2021/08/28 07:37:25;;;;;;;2.25;1.65;;;17.10;99.90;;;;;;5052364;28;20195;-81
2021/08/28 07:39:52;;;;;;;2.95;2.03;;;17.50;99.90;;;;;;5052872;28;20195;-80
2021/08/28 07:42:20;;;;;;;2.25;1.80;;;17.60;99.90;;;;;;5051720;28;20206;-80
2021/08/28 07:44:46;;;;;;;3.58;2.15;;;17.60;99.90;;;;;;5050378;28;20199;-80
2021/08/28 07:47:13;;;;;;;3.92;2.33;;;17.60;99.90;;;;;;5052730;28;20199;-80
2021/08/28 07:49:40;;;;;;;4.30;2.33;;;17.60;99.90;;;;;;5049382;28;20204;-80
2021/08/28 07:52:07;;;;;;;1.70;1.60;;;17.70;99.90;;;;;;5050422;28;20208;-79
2021/08/28 07:54:34;;;;;;;3.92;2.53;;;17.60;99.90;;;;;;5052516;28;20211;-81
2021/08/28 07:57:00;;;;;;;3.28;2.65;;;17.30;99.90;;;;;;5062204;28;20683;-80
2021/08/28 07:59:29;;;;;;;2.97;2.40;;;18.10;99.90;;;;;;5060939;28;20211;-80
2021/08/28 08:01:55;;;;;;;2.80;2.40;;;17.70;99.90;;;;;;5051000;28;20219;-80
2021/08/28 08:04:22;;;;;;;2.35;2.00;;;17.80;99.90;;;;;;5051222;28;20256;-80
2021/08/28 08:06:49;;;;;;;2.70;2.50;;;17.70;99.90;;;;;;5050563;28;20313;-80
2021/08/28 08:09:15;;;;;;;3.03;2.83;;;17.70;99.90;;;;;;5053210;28;20203;-80
2021/08/28 08:11:42;;;;;;;3.00;2.50;;;17.60;99.90;;;;;;5054121;28;20212;-80
2021/08/28 08:14:09;;;;;;;3.67;2.42;;;17.70;99.90;;;;;;5052809;28;20195;-80
2021/08/28 08:16:37;;;;;;;2.80;2.42;;;17.60;99.90;;;;;;5050793;28;20281;-81
2021/08/28 08:19:04;;;;;;;2.97;2.35;;;17.70;99.90;;;;;;5044792;28;20268;-76
2021/08/28 08:21:30;;;;;;;2.45;2.25;;;17.70;99.90;;;;;;5043026;28;20203;-76
2021/08/28 08:23:57;;;;;;;2.05;1.85;;;17.80;99.90;;;;;;5045167;28;20249;-76
2021/08/28 08:26:24;;;;;;;2.78;2.58;;;17.80;99.90;;;;;;5050015;28;20199;-77
2021/08/28 08:28:51;;;;;;;3.10;2.80;;;17.80;99.90;;;;;;5045813;28;20245;-76
2021/08/28 08:31:18;;;;;;;3.03;2.83;;;17.80;99.90;;;;;;5050395;28;20325;-76
2021/08/28 08:33:46;;;;;;;2.30;2.10;;;17.90;99.90;;;;;;5046840;28;20599;-76
2021/08/28 08:36:13;;;;;;;2.47;2.17;;;17.80;99.90;;;;;;5050492;28;20199;-76
2021/08/28 08:38:41;;;;;;;2.80;2.60;;;17.90;99.90;;;;;;5046271;28;20214;-76
2021/08/28 08:41:08;;;;;;;2.00;1.80;;;17.90;99.90;;;;;;5046575;28;20195;-76
2021/08/28 08:43:35;;;;;;;2.75;2.55;;;17.90;99.90;;;;;;5045259;28;20211;-76
2021/08/28 08:46:01;;;;;;;2.55;2.35;;;18.00;99.90;;;;;;5043447;28;20199;-75
2021/08/28 08:48:29;;;;;;;2.55;2.35;;;18.00;99.90;;;;;;5047838;28;21434;-76
2021/08/28 08:50:57;;;;;;;2.72;2.35;;;18.00;99.90;;;;;;5048964;28;20257;-76
2021/08/28 08:53:29;;;;;;;4.85;2.60;;;18.00;99.90;;;;;;5049771;28;20191;-76
2021/08/28 08:55:56;;;;;;;2.75;2.30;;;18.00;99.90;;;;;;5049978;28;20199;-76
2021/08/28 08:58:23;;;;;;;5.47;3.95;;;18.00;99.90;;;;;;5039775;28;20192;-76
2021/08/28 09:00:49;;;;;;;2.80;2.40;;;17.90;99.90;;;;;;5048984;28;20199;-76
2021/08/28 09:03:16;;;;;;;2.90;2.38;;;17.90;99.90;;;;;;5046047;28;20261;-76
2021/08/28 09:05:43;;;;;;;3.67;2.75;;;18.00;99.90;;;;;;5050337;28;20242;-76
2021/08/28 09:08:11;;;;;;;2.88;2.60;;;17.90;99.90;;;;;;5051456;28;20211;-76
2021/08/28 09:10:38;;;;;;;4.43;3.15;;;18.00;99.90;;;;;;5047070;28;20234;-77
2021/08/28 09:13:17;;;;;;;3.25;2.85;;;17.90;99.90;;;;;;5049694;28;20688;-75
2021/08/28 09:15:46;;;;;;;3.35;3.05;;;17.90;99.90;;;;;;5050512;28;20199;-76
2021/08/28 09:18:13;;;;;;;3.25;3.00;;;17.90;99.90;;;;;;5042664;28;20203;-76
2021/08/28 09:20:40;;;;;;;3.90;3.15;;;17.90;99.90;;;;;;5044290;28;20234;-76
2021/08/28 09:23:12;;;;;;;3.13;2.65;;;17.80;99.90;;;;;;5049179;28;20226;-80
2021/08/28 09:25:39;;;;;;;3.05;2.53;;;17.90;99.90;;;;;;5042340;28;20204;-78
2021/08/28 09:28:06;;;;;;;3.80;3.08;;;17.90;99.90;;;;;;5050305;28;20257;-77
2021/08/28 09:30:38;;;;;;;3.10;2.80;;;18.00;99.90;;;;;;5040280;28;20199;-76
2021/08/28 09:33:06;;;;;;;2.58;2.38;;;18.00;99.90;;;;;;5040752;28;20651;-75
2021/08/28 09:35:35;;;;;;;3.95;3.60;;;18.00;99.90;;;;;;5039663;28;20192;-76
2021/08/28 09:38:04;;;;;;;3.53;2.90;;;18.00;99.90;;;;;;5040575;28;21569;-75
2021/08/28 09:40:33;;;;;;;3.20;3.00;;;18.10;99.90;;;;;;5036710;28;20195;-74
2021/08/28 09:43:03;;;;;;;3.10;2.80;;;18.10;99.90;;;;;;5039497;28;20207;-75
2021/08/28 09:45:30;;;;;;;3.42;3.13;;;18.10;99.90;;;;;;5042395;28;20199;-75
2021/08/28 09:47:57;;;;;;;4.25;3.63;;;18.10;99.90;;;;;;5041140;28;20211;-76
2021/08/28 09:50:35;;;;;;;3.88;3.47;;;18.20;99.90;;;;;;5041916;28;20203;-76
2021/08/28 09:53:07;;;;;;;4.65;4.25;;;18.20;99.90;;;;;;5041555;28;20220;-76
2021/08/28 09:55:37;;;;;;;4.32;3.80;;;18.20;99.90;;;;;;5043355;28;20195;-75
2021/08/28 09:58:08;;;;;;;4.20;3.90;;;18.20;99.90;;;;;;5038119;28;20241;-76
2021/08/28 10:00:41;;;;;;;3.92;3.63;;;18.20;99.90;;;;;;5046811;28;20199;-76
2021/08/28 10:03:08;;;;;;;5.68;3.65;;;18.20;99.90;;;;;;5039661;28;20222;-76
2021/08/28 10:05:36;;;;;;;4.57;3.60;;;18.30;99.90;;;;;;5043445;28;20199;-76
2021/08/28 10:08:05;;;;;;;4.13;3.67;;;18.20;99.90;;;;;;5042057;28;20195;-75
2021/08/28 10:10:33;;;;;;;3.58;3.28;;;18.30;99.90;;;;;;5037692;28;20203;-75
2021/08/28 10:13:02;;;;;;;3.95;3.58;;;18.20;99.90;;;;;;5040997;28;20225;-75
2021/08/28 10:15:31;;;;;;;4.65;4.25;;;18.20;99.90;;;;;;5040212;28;20684;-75
2021/08/28 10:17:59;;;;;;;3.88;3.10;;;18.10;99.90;;;;;;5040652;28;20199;-75
2021/08/28 10:20:28;;;;;;;2.88;2.60;;;18.10;99.90;;;;;;5044989;28;20215;-76
2021/08/28 10:22:57;;;;;;;4.07;3.67;;;18.10;99.90;;;;;;5039388;28;20253;-75
2021/08/28 10:25:26;;;;;;;4.45;4.00;;;18.20;99.90;;;;;;5042879;28;20241;-74
2021/08/28 10:27:54;;;;;;;4.35;3.55;;;18.10;99.90;;;;;;5054415;28;20253;-74
2021/08/28 10:30:24;;;;;;;4.05;3.20;;;18.20;99.90;;;;;;5049253;28;20195;-75
2021/08/28 10:32:52;;;;;;;4.32;3.78;;;18.20;99.90;;;;;;5043290;28;20624;-74
2021/08/28 10:35:20;;;;;;;3.55;3.03;;;18.20;99.90;;;;;;5044694;28;20406;-75
2021/08/28 10:37:47;;;;;;;5.22;3.65;;;18.20;99.90;;;;;;5045567;28;20252;-77
2021/08/28 10:40:18;;;;;;;3.85;3.45;;;18.20;99.90;;;;;;5048582;28;20198;-75
2021/08/28 10:42:45;;;;;;;2.85;2.65;;;18.20;99.90;;;;;;5050050;28;20207;-75
2021/08/28 10:45:12;;;;;;;3.50;3.20;;;18.20;99.90;;;;;;5044036;28;20682;-76
2021/08/28 10:47:45;;;;;;;4.20;3.55;;;18.20;99.90;;;;;;5042922;28;20196;-76
2021/08/28 10:50:13;;;;;;;3.53;3.20;;;18.20;99.90;;;;;;5042969;28;20211;-76
2021/08/28 10:52:48;;;;;;;4.53;3.05;;;18.20;99.90;;;;;;5044058;28;20264;-77
2021/08/28 10:55:15;;;;;;;4.53;3.90;;;18.30;99.90;;;;;;5048041;28;20199;-79
2021/08/28 10:57:42;;;;;;;4.20;3.25;;;18.30;99.90;;;;;;5057882;28;20274;-77
2021/08/28 11:00:11;;;;;;;4.38;3.20;;;18.40;99.90;;;;;;5060117;28;20203;-76
2021/08/28 11:02:54;;;;;;;3.58;3.28;;;18.40;99.90;;;;;;5042100;28;20266;-77
2021/08/28 11:05:22;;;;;;;3.33;3.03;;;18.40;99.90;;;;;;5047013;28;20196;-77
2021/08/28 11:07:50;;;;;;;4.95;3.95;;;18.40;99.90;;;;;;5043105;28;20201;-76
2021/08/28 11:10:20;;;;;;;3.58;3.28;;;18.50;99.90;;;;;;5043586;28;20254;-75
2021/08/28 11:12:50;;;;;;;3.70;3.25;;;18.50;99.90;;;;;;5043716;28;20224;-76
2021/08/28 11:15:44;;;;;;;2.80;2.60;;;18.60;99.90;;;;;;5044099;28;20227;-75
2021/08/28 11:18:31;;;;;;;3.05;2.75;;;18.70;99.90;;;;;;5043752;28;20249;-77
2021/08/28 11:21:07;;;;;;;3.70;2.90;;;18.70;99.90;;;;;;5047232;28;20227;-77
2021/08/28 11:23:47;;;;;;;2.60;2.40;;;18.80;99.90;;;;;;5040633;28;20679;-77
2021/08/28 11:26:33;;;;;;;3.30;2.80;;;18.80;99.90;;;;;;5055628;28;20196;-76
2021/08/28 11:29:00;;;;;;;4.15;3.20;;;18.80;99.90;;;;;;5060573;28;20361;-78
2021/08/28 11:31:45;;;;;;;3.17;2.88;;;18.80;99.90;;;;;;5048338;28;20305;-77
2021/08/28 11:34:14;;;;;;;4.10;3.70;;;18.80;99.90;;;;;;5045573;28;20314;-77
2021/08/28 11:36:40;;;;;;;3.95;3.15;;;18.90;99.90;;;;;;5045985;28;20238;-76
2021/08/28 11:39:22;;;;;;;3.15;2.72;;;18.90;99.90;;;;;;5045572;28;20722;-76
2021/08/28 11:41:49;;;;;;;3.70;3.05;;;18.90;99.90;;;;;;5048102;28;20187;-76
2021/08/28 11:44:16;;;;;;;3.20;2.97;;;19.00;99.90;;;;;;5049791;28;20200;-77
2021/08/28 11:46:47;;;;;;;3.50;2.75;;;19.10;99.90;;;;;;5043810;28;20188;-77
2021/08/28 11:49:16;;;;;;;3.47;2.90;;;19.10;99.90;;;;;;5049307;28;20217;-77
2021/08/28 11:51:43;;;;;;;3.55;3.00;;;19.20;99.90;;;;;;5042400;28;20195;-76
2021/08/28 11:54:11;;;;;;;3.25;2.95;;;19.20;99.90;;;;;;5044667;28;20220;-76
2021/08/28 11:56:37;;;;;;;2.63;2.42;;;19.30;99.90;;;;;;5044353;28;20203;-76
2021/08/28 11:59:07;;;;;;;2.55;2.35;;;19.30;99.90;;;;;;5047693;28;20195;-76
2021/08/28 12:01:36;;;;;;;3.67;2.90;;;19.30;99.90;;;;;;5049698;28;20211;-76
2021/08/28 12:04:05;;;;;;;6.75;3.08;;;19.30;99.90;;;;;;5045325;28;20286;-77
2021/08/28 12:06:34;;;;;;;3.47;3.17;;;19.30;99.90;;;;;;5046854;28;20208;-75
2021/08/28 12:09:02;;;;;;;2.55;2.35;;;19.30;99.90;;;;;;5038652;28;20204;-76
2021/08/28 12:11:29;;;;;;;3.60;3.30;;;19.30;99.90;;;;;;5048386;28;20203;-77
2021/08/28 12:13:58;;;;;;;2.38;1.95;;;19.30;99.90;;;;;;5054147;28;20219;-77
2021/08/28 12:16:27;;;;;;;2.50;2.25;;;19.40;99.90;;;;;;5041720;28;20199;-76
2021/08/28 12:19:03;;;;;;;2.40;2.10;;;19.30;99.90;;;;;;5045061;28;20199;-77
2021/08/28 12:21:31;;;;;;;2.45;2.25;;;19.30;99.90;;;;;;5047269;28;20199;-75
2021/08/28 12:24:15;;;;;;;2.63;2.42;;;19.40;99.90;;;;;;5044625;28;20200;-76
2021/08/28 12:26:43;;;;;;;2.40;2.20;;;19.40;99.90;;;;;;5046313;28;20241;-77
2021/08/28 12:29:09;;;;;;;3.55;2.70;;;19.40;99.90;;;;;;5051738;28;20241;-77
2021/08/28 12:31:36;;;;;;;2.90;2.70;;;19.40;99.90;;;;;;5049536;28;20203;-76
2021/08/28 12:34:03;;;;;;;2.67;2.25;;;19.40;99.90;;;;;;5051273;28;20262;-77
2021/08/28 12:36:34;;;;;;;3.25;2.92;;;19.40;99.90;;;;;;5040986;28;20600;-77
2021/08/28 12:39:05;;;;;;;2.63;2.40;;;19.40;99.90;;;;;;5040357;28;20224;-80
2021/08/28 12:41:32;;;;;;;3.03;2.53;;;19.30;99.90;;;;;;5051904;28;20260;-76
2021/08/28 12:43:59;;;;;;;3.47;2.30;;;19.40;99.90;;;;;;5043492;28;20250;-76
2021/08/28 12:46:28;;;;;;;2.83;2.60;;;19.30;99.90;;;;;;5041279;28;20211;-77
2021/08/28 12:49:09;;;;;;;2.83;2.53;;;19.40;99.90;;;;;;5049231;28;20199;-76
2021/08/28 12:51:36;;;;;;;3.10;2.80;;;19.30;99.90;;;;;;5050181;28;20257;-77
2021/08/28 12:54:04;;;;;;;2.63;2.42;;;19.30;99.90;;;;;;5040061;28;20219;-78